X

Important NEWS



New Hub Active

Miami is our new hub! Old members can request transfer via hr@dlxairways.net

Thank you very much and have nice flight.


Deluxe Airways.

X

Tours



Hello again, we created one nice test tour for all pilots to attend. also this is ment to be testing of our tour system

Available Tours

If you find some issues please inform us.

Thank you very much and have nice flight.


Deluxe Airways.

 METAR AND TAF INFORMATION
ArrayMETAR FOR LBBG
4705882 6 LBBG 250630Z 10006KT 030V180 CAVOK 30/17 Q1017 NOSIG LBBG 2019-08-25T06:30:00Z 42.57 27.52 30.0 17.0 100 6 6.21 30.029528 TRUE VFR METAR 28.0 LBBG 250600Z VRB03KT CAVOK 28/18 Q1017 NOSIG LBBG 2019-08-25T06:00:00Z 42.57 27.52 28.0 18.0 0 3 6.21 30.029528 TRUE VFR METAR 28.0 LBBG 250530Z VRB02KT CAVOK 28/16 Q1017 NOSIG LBBG 2019-08-25T05:30:00Z 42.57 27.52 28.0 16.0 0 2 6.21 30.029528 TRUE VFR METAR 28.0 LBBG 250500Z VRB01KT CAVOK 27/16 Q1017 NOSIG LBBG 2019-08-25T05:00:00Z 42.57 27.52 27.0 16.0 0 1 6.21 30.029528 TRUE VFR METAR 28.0

 AIRPORT MAP

 RUNWAY INFORMATION
Runway 04 Runway length 10499 ft Runway width 148 ft
Runway elevation 89 ft Runway displaced threshold 0 ft Runway heading 44
Runway 22 Runway length 10499 ft Runway width 148 ft
Runway elevation 121 ft Runway displaced threshold 0 ft Runway heading 224

 AIRPORT FREQUENCIES
Type APP Name APP Frequency 125.1 MHZ
Type ATIS Name ATIS Frequency 120.95 MHZ
Type TWR Name TWR Frequency 118 MHZ

 AIRPORT NEAR NAVIGATION AIDS
Type VOR-DME Name Burgas Frequency 112000 KHZ
Type NDB Name Burgas Frequency 356 KHZ



Powered by Virtual Airlines Manager [v2.6.2]

Template code change by DeluxeAir